createdAt,value
2019-02-28T00:00:37.196Z,6.10
2019-02-28T00:03:04.555Z,6.00
2019-02-28T00:05:31.934Z,6.00
2019-02-28T00:07:59.327Z,6.10
2019-02-28T00:10:28.110Z,6.20
2019-02-28T00:12:55.511Z,6.20
2019-02-28T00:15:23.074Z,6.30
2019-02-28T00:17:50.335Z,6.40
2019-02-28T00:20:17.675Z,6.60
2019-02-28T00:22:48.350Z,6.70
2019-02-28T00:25:13.438Z,6.90
2019-02-28T00:27:40.434Z,7.00
2019-02-28T00:30:07.735Z,7.00
2019-02-28T00:32:35.167Z,7.00
2019-02-28T00:35:02.633Z,7.10
2019-02-28T00:37:29.578Z,7.10
2019-02-28T00:39:56.888Z,7.00
2019-02-28T00:42:24.166Z,7.00
2019-02-28T00:44:51.207Z,6.90
2019-02-28T00:47:18.127Z,6.80
2019-02-28T00:49:45.286Z,6.70
2019-02-28T00:52:12.206Z,6.50
2019-02-28T00:54:43.138Z,6.50
2019-02-28T00:57:08.791Z,6.50
2019-02-28T00:59:36.447Z,6.40
2019-02-28T01:02:03.638Z,6.40
2019-02-28T01:04:31.011Z,6.40
2019-02-28T01:06:58.123Z,6.30
2019-02-28T01:09:27.096Z,6.30
2019-02-28T01:11:54.710Z,6.20
2019-02-28T01:14:22.042Z,6.10
2019-02-28T01:16:50.178Z,6.30
2019-02-28T01:19:17.939Z,6.40
2019-02-28T01:21:45.350Z,6.40
2019-02-28T01:24:12.346Z,6.30
2019-02-28T01:26:39.367Z,6.20
2019-02-28T01:29:06.312Z,6.00
2019-02-28T01:31:33.847Z,5.90
2019-02-28T01:34:01.021Z,5.80
2019-02-28T01:36:28.551Z,5.90
2019-02-28T01:38:58.100Z,5.90
2019-02-28T01:41:24.828Z,5.90
2019-02-28T01:43:51.980Z,6.00
2019-02-28T01:46:19.204Z,6.00
2019-02-28T01:48:47.083Z,6.00
2019-02-28T01:51:14.352Z,6.00
2019-02-28T01:53:41.695Z,6.10
2019-02-28T01:56:08.899Z,6.00
2019-02-28T01:58:36.383Z,6.10
2019-02-28T02:01:03.847Z,6.10
2019-02-28T02:03:31.163Z,6.00
2019-02-28T02:05:59.415Z,6.00
2019-02-28T02:08:26.462Z,6.00
2019-02-28T02:10:55.977Z,5.90
2019-02-28T02:13:22.792Z,5.80
2019-02-28T02:15:51.410Z,5.70
2019-02-28T02:18:20.337Z,5.70
2019-02-28T02:20:47.355Z,5.60
2019-02-28T02:23:17.876Z,5.50
2019-02-28T02:25:43.632Z,5.40
2019-02-28T02:28:10.582Z,5.40
2019-02-28T02:30:37.848Z,5.40
2019-02-28T02:33:05.452Z,5.30
2019-02-28T02:35:32.593Z,5.20
2019-02-28T02:38:03.629Z,5.00
2019-02-28T02:40:28.815Z,4.80
2019-02-28T02:42:56.008Z,4.70
2019-02-28T02:45:23.111Z,4.70
2019-02-28T02:47:50.675Z,4.90
2019-02-28T02:50:17.676Z,5.00
2019-02-28T02:52:45.166Z,5.00
2019-02-28T02:55:12.570Z,5.00
2019-02-28T02:57:39.757Z,5.00
2019-02-28T03:00:13.801Z,4.90
2019-02-28T03:02:39.134Z,4.90
2019-02-28T03:05:06.460Z,4.80
2019-02-28T03:07:33.506Z,4.80
2019-02-28T03:10:00.773Z,4.80
2019-02-28T03:12:31.151Z,4.90
2019-02-28T03:14:56.819Z,4.80
2019-02-28T03:17:24.043Z,4.80
2019-02-28T03:19:51.647Z,4.70
2019-02-28T03:22:19.347Z,4.70
2019-02-28T03:24:50.701Z,4.70
2019-02-28T03:27:19.200Z,4.80
2019-02-28T03:29:45.288Z,4.90
2019-02-28T03:32:12.452Z,4.90
2019-02-28T03:34:40.489Z,5.00
2019-02-28T03:37:07.668Z,5.00
2019-02-28T03:39:34.676Z,5.00
2019-02-28T03:42:02.291Z,5.10
2019-02-28T03:44:29.460Z,5.00
2019-02-28T03:46:57.056Z,4.90
2019-02-28T03:49:24.114Z,4.80
2019-02-28T03:51:51.452Z,4.90
2019-02-28T03:54:18.511Z,4.90
2019-02-28T03:56:51.243Z,4.90
2019-02-28T03:59:18.818Z,5.00
2019-02-28T04:01:46.463Z,5.10
2019-02-28T04:04:13.830Z,5.10
2019-02-28T04:06:41.117Z,5.00
2019-02-28T04:09:09.047Z,5.00
2019-02-28T04:11:36.845Z,4.90
2019-02-28T04:14:04.005Z,5.00
2019-02-28T04:16:31.023Z,5.00
2019-02-28T04:18:58.283Z,5.20
2019-02-28T04:21:25.175Z,5.10
2019-02-28T04:23:52.744Z,5.00
2019-02-28T04:26:20.138Z,4.90
2019-02-28T04:28:53.502Z,5.00
2019-02-28T04:31:19.972Z,4.90
2019-02-28T04:33:46.876Z,5.00
2019-02-28T04:36:13.781Z,5.00
2019-02-28T04:38:41.574Z,5.00
2019-02-28T04:41:08.490Z,4.90
2019-02-28T04:43:36.127Z,4.90
2019-02-28T04:46:03.506Z,4.70
2019-02-28T04:48:30.819Z,4.60
2019-02-28T04:50:58.919Z,4.60
2019-02-28T04:53:26.575Z,4.60
2019-02-28T04:55:53.627Z,4.50
2019-02-28T04:58:22.354Z,4.40
2019-02-28T05:00:50.660Z,4.40
2019-02-28T05:03:18.059Z,4.30
2019-02-28T05:05:46.918Z,4.30
2019-02-28T05:08:14.834Z,4.30
2019-02-28T05:10:42.488Z,4.20
2019-02-28T05:13:11.363Z,4.20
2019-02-28T05:15:41.040Z,4.20
2019-02-28T05:18:07.784Z,4.20
2019-02-28T05:20:35.080Z,4.10
2019-02-28T05:23:02.998Z,4.00
2019-02-28T05:25:29.984Z,4.00
2019-02-28T05:27:56.907Z,3.90
2019-02-28T05:30:23.947Z,4.00
2019-02-28T05:32:50.964Z,3.90
2019-02-28T05:35:17.910Z,3.90
2019-02-28T05:37:48.261Z,3.90
2019-02-28T05:40:14.627Z,3.90
2019-02-28T05:42:42.078Z,4.00
2019-02-28T05:45:11.335Z,4.10
2019-02-28T05:47:46.173Z,4.20
2019-02-28T05:50:08.044Z,4.20
2019-02-28T05:52:35.043Z,4.40
2019-02-28T05:55:02.176Z,4.50
2019-02-28T05:57:29.223Z,4.70
2019-02-28T06:00:01.272Z,4.80
2019-02-28T06:02:26.071Z,5.20
2019-02-28T06:04:53.216Z,5.40
2019-02-28T06:07:20.699Z,5.60
2019-02-28T06:09:48.699Z,5.70
2019-02-28T06:12:16.639Z,5.80
2019-02-28T06:14:44.102Z,5.90
2019-02-28T06:17:11.520Z,5.90
2019-02-28T06:19:40.258Z,6.00
2019-02-28T06:22:08.208Z,6.00
2019-02-28T06:24:35.707Z,6.00
2019-02-28T06:27:03.736Z,6.10
2019-02-28T06:29:32.649Z,6.20
2019-02-28T06:31:59.791Z,6.30
2019-02-28T06:34:27.267Z,6.30
2019-02-28T06:36:54.790Z,6.20
2019-02-28T06:39:22.703Z,6.20
2019-02-28T06:41:49.723Z,6.20
2019-02-28T06:44:16.863Z,6.20
2019-02-28T06:46:43.892Z,6.20
2019-02-28T06:49:11.516Z,6.40
2019-02-28T06:51:38.867Z,6.40
2019-02-28T06:54:07.987Z,6.50
2019-02-28T06:56:35.467Z,6.50
2019-02-28T06:59:04.890Z,6.60
2019-02-28T07:01:32.707Z,6.70
2019-02-28T07:04:02.091Z,6.80
2019-02-28T07:06:28.999Z,7.00
2019-02-28T07:08:56.152Z,7.20
2019-02-28T07:11:23.171Z,7.30
2019-02-28T07:13:50.257Z,7.40
2019-02-28T07:16:17.635Z,7.40
2019-02-28T07:18:45.452Z,7.60
2019-02-28T07:21:12.538Z,7.70
2019-02-28T07:23:39.718Z,7.90
2019-02-28T07:26:06.926Z,8.10
2019-02-28T07:28:37.439Z,8.10
2019-02-28T07:31:03.191Z,8.10
2019-02-28T07:33:30.613Z,8.20
2019-02-28T07:35:57.862Z,8.40
2019-02-28T07:38:25.653Z,8.50
2019-02-28T07:40:54.235Z,8.60
2019-02-28T07:43:21.200Z,8.70
2019-02-28T07:45:48.826Z,8.80
2019-02-28T07:48:16.860Z,8.90
2019-02-28T07:50:46.653Z,8.90
2019-02-28T07:53:13.369Z,9.00
2019-02-28T07:55:40.691Z,9.10
2019-02-28T07:58:07.679Z,9.10
2019-02-28T08:00:34.818Z,9.20
2019-02-28T08:03:01.930Z,9.20
2019-02-28T08:05:30.986Z,9.30
2019-02-28T08:07:58.731Z,9.40
2019-02-28T08:10:25.840Z,9.40
2019-02-28T08:12:52.935Z,9.50
2019-02-28T08:15:22.533Z,9.60
2019-02-28T08:17:50.319Z,9.70
2019-02-28T08:20:18.267Z,9.80
2019-02-28T08:22:45.604Z,10.00
2019-02-28T08:25:13.014Z,10.30
2019-02-28T08:27:40.696Z,10.40
2019-02-28T08:30:12.844Z,10.50
2019-02-28T08:32:44.063Z,10.60
2019-02-28T08:35:09.845Z,10.70
2019-02-28T08:37:37.027Z,10.80
2019-02-28T08:40:05.275Z,10.90
2019-02-28T08:42:32.284Z,11.10
2019-02-28T08:44:59.588Z,11.30
2019-02-28T08:47:26.682Z,11.50
2019-02-28T08:49:53.618Z,11.50
2019-02-28T08:52:22.052Z,11.50
2019-02-28T08:54:49.054Z,11.60
2019-02-28T08:57:16.063Z,11.80
2019-02-28T08:59:43.005Z,11.90
2019-02-28T09:02:10.025Z,12.00
2019-02-28T09:04:41.246Z,12.10
2019-02-28T09:07:06.123Z,12.20
2019-02-28T09:09:34.430Z,12.30
2019-02-28T09:12:02.303Z,12.40
2019-02-28T09:14:29.243Z,12.50
2019-02-28T09:16:56.258Z,12.40
2019-02-28T09:19:23.718Z,12.50
2019-02-28T09:21:52.844Z,12.60
2019-02-28T09:24:20.072Z,12.70
2019-02-28T09:26:47.087Z,12.90
2019-02-28T09:29:14.524Z,12.90
2019-02-28T09:31:41.583Z,13.00
2019-02-28T09:34:09.346Z,13.10
2019-02-28T09:36:36.848Z,13.20
2019-02-28T09:39:06.259Z,13.40
2019-02-28T09:41:36.520Z,13.50
2019-02-28T09:44:03.284Z,13.60
2019-02-28T09:46:30.672Z,13.60
2019-02-28T09:48:57.595Z,13.70
2019-02-28T09:51:37.321Z,13.80
2019-02-28T09:54:04.456Z,13.90
2019-02-28T09:56:31.531Z,14.00
2019-02-28T09:59:00.229Z,14.00
2019-02-28T10:01:28.151Z,14.10
2019-02-28T10:03:55.337Z,14.20
2019-02-28T10:06:23.523Z,14.40
2019-02-28T10:08:51.929Z,14.60
2019-02-28T10:11:19.139Z,14.80
2019-02-28T10:13:49.603Z,15.00
2019-02-28T10:16:16.780Z,15.20
2019-02-28T10:18:44.844Z,15.30
2019-02-28T10:21:11.791Z,15.20
2019-02-28T10:23:39.064Z,15.30
2019-02-28T10:26:06.227Z,15.40
2019-02-28T10:28:33.367Z,15.60
2019-02-28T10:31:00.651Z,15.90
2019-02-28T10:33:27.946Z,16.20
2019-02-28T10:35:54.976Z,16.30
2019-02-28T10:38:22.091Z,16.40
2019-02-28T10:40:52.341Z,16.40
2019-02-28T10:43:18.887Z,16.50
2019-02-28T10:45:46.140Z,16.40
2019-02-28T10:48:14.232Z,16.30
2019-02-28T10:50:41.353Z,16.50
2019-02-28T10:53:08.821Z,16.60
2019-02-28T10:55:36.318Z,16.60
2019-02-28T10:58:04.079Z,16.50
2019-02-28T11:00:33.509Z,16.30
2019-02-28T11:03:01.245Z,16.10
2019-02-28T11:05:29.858Z,15.90
2019-02-28T11:07:57.339Z,15.70
2019-02-28T11:10:35.056Z,15.50
2019-02-28T11:12:59.039Z,15.50
2019-02-28T11:15:26.445Z,15.40
2019-02-28T11:17:53.852Z,15.40
2019-02-28T11:20:22.544Z,15.50
2019-02-28T11:22:51.420Z,15.50
2019-02-28T11:25:19.613Z,15.70
2019-02-28T11:27:46.947Z,15.90
2019-02-28T11:30:16.368Z,15.90
2019-02-28T11:32:43.798Z,15.90
2019-02-28T11:35:11.262Z,16.10
2019-02-28T11:37:38.828Z,16.20
2019-02-28T11:40:08.467Z,16.20
2019-02-28T11:42:36.246Z,16.30
2019-02-28T11:45:04.370Z,16.50
2019-02-28T11:47:32.031Z,16.70
2019-02-28T11:50:00.350Z,16.90
2019-02-28T11:52:28.506Z,16.90
2019-02-28T11:54:55.692Z,16.90
2019-02-28T11:57:22.983Z,17.00
2019-02-28T11:59:51.577Z,17.10
2019-02-28T12:02:20.238Z,17.10
2019-02-28T12:04:47.550Z,17.30
2019-02-28T12:07:14.811Z,17.50
2019-02-28T12:09:41.701Z,17.60
2019-02-28T12:12:10.437Z,17.70
2019-02-28T12:14:37.878Z,17.80
2019-02-28T12:17:05.214Z,17.90
2019-02-28T12:19:32.808Z,17.90
2019-02-28T12:22:00.214Z,17.80
2019-02-28T12:24:29.354Z,17.80
2019-02-28T12:26:56.476Z,17.80
2019-02-28T12:29:23.396Z,18.00
2019-02-28T12:31:52.306Z,18.10
2019-02-28T12:34:19.376Z,18.30
2019-02-28T12:36:49.409Z,18.30
2019-02-28T12:39:15.683Z,18.40
2019-02-28T12:41:43.224Z,18.40
2019-02-28T12:44:12.425Z,18.50
2019-02-28T12:46:40.128Z,18.60
2019-02-28T12:49:07.280Z,18.50
2019-02-28T12:51:36.575Z,18.50
2019-02-28T12:54:16.054Z,18.50
2019-02-28T12:56:45.212Z,18.70
2019-02-28T12:59:12.907Z,18.80
2019-02-28T13:01:40.526Z,19.00
2019-02-28T13:04:08.297Z,19.10
2019-02-28T13:06:36.223Z,19.20
2019-02-28T13:09:05.532Z,19.20
2019-02-28T13:11:35.889Z,19.30
2019-02-28T13:14:06.473Z,19.30
2019-02-28T13:16:34.384Z,19.30
2019-02-28T13:19:01.849Z,19.30
2019-02-28T13:21:31.107Z,19.30
2019-02-28T13:23:58.955Z,19.30
2019-02-28T13:26:26.855Z,19.10
2019-02-28T13:28:54.571Z,19.10
2019-02-28T13:31:25.525Z,19.00
2019-02-28T13:33:54.693Z,19.00
2019-02-28T13:36:22.787Z,19.20
2019-02-28T13:38:54.845Z,19.30
2019-02-28T13:41:22.126Z,19.20
2019-02-28T13:43:50.895Z,19.20
2019-02-28T13:46:18.585Z,19.20
2019-02-28T13:48:46.888Z,19.20
2019-02-28T13:51:14.448Z,19.30
2019-02-28T13:53:43.094Z,19.20
2019-02-28T13:56:12.073Z,19.20
2019-02-28T13:58:39.615Z,19.30
2019-02-28T14:01:07.453Z,19.40
2019-02-28T14:03:35.001Z,19.40
2019-02-28T14:06:03.758Z,19.50
2019-02-28T14:08:33.757Z,19.50
2019-02-28T14:11:01.401Z,19.40
2019-02-28T14:13:29.955Z,19.40
2019-02-28T14:15:58.497Z,19.40
2019-02-28T14:18:26.495Z,19.40
2019-02-28T14:20:54.088Z,19.30
2019-02-28T14:23:23.002Z,19.20
2019-02-28T14:25:50.601Z,19.10
2019-02-28T14:28:18.403Z,19.10
2019-02-28T14:30:46.440Z,19.00
2019-02-28T14:33:16.119Z,18.90
2019-02-28T14:35:44.237Z,19.00
2019-02-28T14:38:12.013Z,19.00
2019-02-28T14:40:40.176Z,18.90
2019-02-28T14:43:07.943Z,18.90
2019-02-28T14:45:39.127Z,18.80
2019-02-28T14:48:05.730Z,18.80
2019-02-28T14:50:34.749Z,18.80
2019-02-28T14:53:02.987Z,18.70
2019-02-28T14:55:32.580Z,18.70
2019-02-28T14:57:59.949Z,18.60
2019-02-28T15:00:29.413Z,18.60
2019-02-28T15:02:59.464Z,18.50
2019-02-28T15:05:27.519Z,18.50
2019-02-28T15:07:57.126Z,18.30
2019-02-28T15:10:25.392Z,18.30
2019-02-28T15:12:55.383Z,18.20
2019-02-28T15:15:22.867Z,18.10
2019-02-28T15:17:50.734Z,18.00
2019-02-28T15:20:18.550Z,17.90
2019-02-28T15:22:46.757Z,17.80
2019-02-28T15:25:18.430Z,17.70
2019-02-28T15:27:45.559Z,17.60
2019-02-28T15:30:17.981Z,17.60
2019-02-28T15:32:50.704Z,17.50
2019-02-28T15:35:20.061Z,17.50
2019-02-28T15:37:48.149Z,17.40
2019-02-28T15:40:21.450Z,17.40
2019-02-28T15:42:48.281Z,17.30
2019-02-28T15:45:16.343Z,17.10
2019-02-28T15:47:43.748Z,17.10
2019-02-28T15:50:13.556Z,16.90
2019-02-28T15:52:43.104Z,16.80
2019-02-28T15:55:11.916Z,16.80
2019-02-28T15:57:39.690Z,16.70
2019-02-28T16:00:11.690Z,16.50
2019-02-28T16:02:42.111Z,16.30
2019-02-28T16:05:09.725Z,16.10
2019-02-28T16:07:38.018Z,16.00
2019-02-28T16:10:06.810Z,16.00
2019-02-28T16:12:34.460Z,15.90
2019-02-28T16:15:05.455Z,15.60
2019-02-28T16:17:33.572Z,15.50
2019-02-28T16:20:03.238Z,15.30
2019-02-28T16:22:31.070Z,15.10
2019-02-28T16:24:58.777Z,15.00
2019-02-28T16:27:29.601Z,14.90
2019-02-28T16:29:56.718Z,14.70
2019-02-28T16:32:24.352Z,14.50
2019-02-28T16:34:52.165Z,14.20
2019-02-28T16:37:21.000Z,14.10
2019-02-28T16:39:50.016Z,14.00
2019-02-28T16:42:17.994Z,13.80
2019-02-28T16:44:45.535Z,13.70
2019-02-28T16:47:14.613Z,13.60
2019-02-28T16:49:44.422Z,13.60
2019-02-28T16:52:12.616Z,13.50
2019-02-28T16:54:40.514Z,13.50
2019-02-28T16:57:09.493Z,13.40
2019-02-28T16:59:38.608Z,13.30
2019-02-28T17:02:06.298Z,13.30
2019-02-28T17:04:34.524Z,13.30
2019-02-28T17:07:02.768Z,13.30
2019-02-28T17:09:39.836Z,13.20
2019-02-28T17:12:31.145Z,13.20
2019-02-28T17:14:58.771Z,13.10
2019-02-28T17:17:48.876Z,13.20
2019-02-28T17:20:16.366Z,13.30
2019-02-28T17:22:44.071Z,13.30
2019-02-28T17:25:11.826Z,13.40
2019-02-28T17:27:45.651Z,13.40
2019-02-28T17:30:28.503Z,13.50
2019-02-28T17:32:56.525Z,13.50
2019-02-28T17:35:24.357Z,13.60
2019-02-28T17:37:54.128Z,13.60
2019-02-28T17:40:23.188Z,13.60
2019-02-28T17:42:53.101Z,13.60
2019-02-28T17:45:24.462Z,13.60
2019-02-28T17:48:30.141Z,13.50
2019-02-28T17:51:11.054Z,13.50
2019-02-28T17:54:20.863Z,13.40
2019-02-28T17:57:16.841Z,13.30
2019-02-28T18:00:29.366Z,13.30
2019-02-28T18:03:38.972Z,13.20
2019-02-28T18:07:20.116Z,13.00
2019-02-28T18:10:13.647Z,13.00
2019-02-28T18:13:03.205Z,12.90
2019-02-28T18:15:46.993Z,12.80
2019-02-28T18:19:10.078Z,12.80
2019-02-28T18:22:25.887Z,12.70
2019-02-28T18:25:38.446Z,12.70
2019-02-28T18:28:25.836Z,12.70
2019-02-28T18:31:36.302Z,12.80
2019-02-28T18:34:10.407Z,12.90
2019-02-28T18:36:40.126Z,12.80
2019-02-28T18:39:11.673Z,12.70
2019-02-28T18:41:41.775Z,12.70
2019-02-28T18:44:14.845Z,12.70
2019-02-28T18:46:42.780Z,12.80
2019-02-28T18:49:10.557Z,12.70
2019-02-28T18:51:48.482Z,12.70
2019-02-28T18:54:17.508Z,12.60
2019-02-28T18:56:45.035Z,12.60
2019-02-28T18:59:18.709Z,12.70
2019-02-28T19:01:57.758Z,12.60
2019-02-28T19:04:25.683Z,12.60
2019-02-28T19:06:59.845Z,12.70
2019-02-28T19:09:30.593Z,12.60
2019-02-28T19:11:58.411Z,12.70
2019-02-28T19:14:30.013Z,12.70
2019-02-28T19:17:00.508Z,12.70
2019-02-28T19:19:28.509Z,12.80
2019-02-28T19:21:56.264Z,12.80
2019-02-28T19:24:23.971Z,12.80
2019-02-28T19:26:51.553Z,12.70
2019-02-28T19:29:19.251Z,12.70
2019-02-28T19:31:47.366Z,12.60
2019-02-28T19:34:15.545Z,12.50
2019-02-28T19:36:43.244Z,12.50
2019-02-28T19:39:11.190Z,12.40
2019-02-28T19:41:39.927Z,12.50
2019-02-28T19:44:08.168Z,12.50
2019-02-28T19:46:35.750Z,12.60
2019-02-28T19:49:03.314Z,12.60
2019-02-28T19:51:30.926Z,12.50
2019-02-28T19:54:02.825Z,12.60
2019-02-28T19:56:30.699Z,12.50
2019-02-28T19:58:58.785Z,12.50
2019-02-28T20:01:26.516Z,12.40
2019-02-28T20:03:54.393Z,12.50
2019-02-28T20:06:22.493Z,12.50
2019-02-28T20:08:50.365Z,12.50
2019-02-28T20:11:18.716Z,12.50
2019-02-28T20:13:48.087Z,12.40
2019-02-28T20:16:15.991Z,12.30
2019-02-28T20:18:44.198Z,12.30
2019-02-28T20:21:12.362Z,12.30
2019-02-28T20:23:39.900Z,12.30
2019-02-28T20:26:08.826Z,12.30
2019-02-28T20:28:36.619Z,12.20
2019-02-28T20:31:05.008Z,12.20
2019-02-28T20:33:32.717Z,12.10
2019-02-28T20:36:01.194Z,12.10
2019-02-28T20:38:29.114Z,12.10
2019-02-28T20:40:58.043Z,12.10
2019-02-28T20:43:27.125Z,12.10
2019-02-28T20:45:54.751Z,12.10
2019-02-28T20:48:22.622Z,12.10
2019-02-28T20:50:50.512Z,12.10
2019-02-28T20:53:18.453Z,12.00
2019-02-28T20:55:46.285Z,12.00
2019-02-28T20:58:13.754Z,12.00
2019-02-28T21:00:41.792Z,12.10
2019-02-28T21:03:09.834Z,12.10
2019-02-28T21:05:38.349Z,12.10
2019-02-28T21:08:06.485Z,12.20
2019-02-28T21:10:34.592Z,12.10
2019-02-28T21:13:02.976Z,12.00
2019-02-28T21:15:33.863Z,12.00
2019-02-28T21:18:02.170Z,12.00
2019-02-28T21:20:31.075Z,12.00
2019-02-28T21:22:59.286Z,11.90
2019-02-28T21:25:27.226Z,11.90
2019-02-28T21:27:55.128Z,11.80
2019-02-28T21:30:23.710Z,11.80
2019-02-28T21:32:52.467Z,11.80
2019-02-28T21:35:21.762Z,11.90
2019-02-28T21:37:50.244Z,11.90
2019-02-28T21:40:25.293Z,11.80
2019-02-28T21:42:53.708Z,11.70
2019-02-28T21:45:21.638Z,11.80
2019-02-28T21:47:50.073Z,11.80
2019-02-28T21:50:18.476Z,11.80
2019-02-28T21:52:47.329Z,11.90
2019-02-28T21:55:15.928Z,11.90
2019-02-28T21:57:44.026Z,12.00
2019-02-28T22:00:19.411Z,11.90
2019-02-28T22:02:48.446Z,11.80
2019-02-28T22:05:18.849Z,11.90
2019-02-28T22:07:49.458Z,11.80
2019-02-28T22:10:17.227Z,11.80
2019-02-28T22:12:44.872Z,11.80
2019-02-28T22:15:14.062Z,11.80
2019-02-28T22:17:44.405Z,11.80
2019-02-28T22:20:12.803Z,11.70
2019-02-28T22:22:40.838Z,11.70
2019-02-28T22:25:09.269Z,11.80
2019-02-28T22:27:38.079Z,11.70
2019-02-28T22:30:26.412Z,11.60
2019-02-28T22:32:56.611Z,11.50
2019-02-28T22:35:37.712Z,11.50
2019-02-28T22:38:05.519Z,11.60
2019-02-28T22:40:33.108Z,11.70
2019-02-28T22:43:00.812Z,11.70
2019-02-28T22:45:28.515Z,11.90
2019-02-28T22:47:56.088Z,11.80
2019-02-28T22:50:23.868Z,11.70
2019-02-28T22:52:53.441Z,11.60
2019-02-28T22:55:21.636Z,11.50
2019-02-28T22:57:50.004Z,11.50
2019-02-28T23:00:31.864Z,11.50
2019-02-28T23:03:01.424Z,11.50
2019-02-28T23:05:29.566Z,11.60
2019-02-28T23:07:58.669Z,11.50
2019-02-28T23:10:36.872Z,11.50
2019-02-28T23:13:04.266Z,11.50
2019-02-28T23:15:31.246Z,11.50
2019-02-28T23:17:58.440Z,11.60
2019-02-28T23:20:25.675Z,11.50
2019-02-28T23:22:52.732Z,11.40
2019-02-28T23:25:20.252Z,11.40
2019-02-28T23:27:47.418Z,11.30
2019-02-28T23:30:38.680Z,11.40
2019-02-28T23:33:09.343Z,11.40
2019-02-28T23:35:40.695Z,11.30
2019-02-28T23:38:07.803Z,11.30
2019-02-28T23:40:35.428Z,11.30
2019-02-28T23:43:02.823Z,11.30
2019-02-28T23:45:30.052Z,11.20
2019-02-28T23:47:57.572Z,11.20
2019-02-28T23:50:24.955Z,11.20
2019-02-28T23:52:52.245Z,11.30
2019-02-28T23:55:19.142Z,11.30
2019-02-28T23:57:46.287Z,11.30
